Time;durP1;ratioP1;P1;durP2;ratioP2;P2;SDS_P1;SDS_P2;PMS_P1;PMS_P2;Temp;Humidity;BMP_temperature;BMP_pressure;BME280_temperature;BME280_humidity;BME280_pressure;Samples;Min_cycle;Max_cycle;Signal;HPM_P1;HPM_P2
2021/12/05 00:22:40;;;;;;;2.78;1.10;;;;;;;2.15;100.00;94520.44;1019059;29;20252;-63
2021/12/05 00:22:41;;;;;;;3.05;0.85;;;;;;;2.13;100.00;94530.22;1015467;29;20728;-63
2021/12/05 00:23:18;;;;;;;4.72;1.20;;;;;;;2.12;100.00;94529.44;1018628;29;20276;-63
2021/12/05 00:24:01;;;;;;;2.88;1.02;;;;;;;2.15;100.00;94517.03;1026632;28;20268;-63
2021/12/05 00:24:34;;;;;;;3.65;0.98;;;;;;;2.14;100.00;94529.19;1018655;29;20267;-61
2021/12/05 00:25:06;;;;;;;3.88;1.05;;;;;;;2.15;100.00;94522.22;1018951;29;20287;-63
2021/12/05 00:25:37;;;;;;;3.03;0.85;;;;;;;2.15;100.00;94527.38;1027025;28;20250;-63
2021/12/05 00:26:10;;;;;;;5.93;1.10;;;;;;;2.16;100.00;94528.97;1024989;28;20269;-63
2021/12/05 00:26:48;;;;;;;2.20;0.98;;;;;;;2.15;100.00;94529.97;1010766;29;20020;-63
2021/12/05 00:27:23;;;;;;;4.80;0.93;;;;;;;2.13;100.00;94525.06;1018745;29;20087;-64
2021/12/05 00:31:46;;;;;;;4.88;1.20;;;;;;;2.02;100.00;94523.38;1025987;28;20151;-63
2021/12/05 00:32:54;;;;;;;4.30;1.10;;;;;;;2.05;100.00;94536.59;1018428;29;20276;-63
2021/12/05 00:33:49;;;;;;;3.35;1.10;;;;;;;2.05;100.00;94528.84;1015241;29;20026;-63
2021/12/05 00:34:45;;;;;;;4.00;1.05;;;;;;;2.10;100.00;94528.13;1018594;29;20275;-62
2021/12/05 00:43:04;;;;;;;3.33;1.00;;;;;;;1.94;100.00;94534.09;1026647;28;20324;-61
2021/12/05 00:45:19;;;;;;;1.26;0.90;;;;;;;1.89;100.00;94537.41;1018306;29;20317;-63
2021/12/05 00:48:05;;;;;;;3.47;1.05;;;;;;;1.87;100.00;94524.69;1026788;28;20523;-60
2021/12/05 00:57:44;;;;;;;5.04;1.24;;;;;;;1.71;100.00;94535.06;1022406;29;20321;-64
2021/12/05 01:00:48;;;;;;;2.30;0.82;;;;;;;1.50;100.00;94505.56;1030176;28;20014;-63
2021/12/05 01:03:53;;;;;;;3.26;0.90;;;;;;;1.74;100.00;94547.53;1024727;28;20408;-62
2021/12/05 01:08:36;;;;;;;1.50;0.86;;;;;;;1.73;100.00;94551.13;1025029;28;20080;-64
2021/12/05 01:10:03;;;;;;;2.92;0.70;;;;;;;1.67;100.00;94562.41;1026374;28;20254;-62
2021/12/05 01:13:34;;;;;;;3.40;0.90;;;;;;;1.67;100.00;94567.59;1022366;29;20031;-62
2021/12/05 01:14:57;;;;;;;3.24;0.70;;;;;;;1.58;100.00;94559.47;1029839;28;20273;-63
2021/12/05 01:15:28;;;;;;;2.06;0.84;;;;;;;1.56;100.00;94557.09;1021754;28;20035;-63
2021/12/05 01:16:01;;;;;;;3.63;1.55;;;;;;;1.65;100.00;94566.03;1018453;29;20031;-62
2021/12/05 01:16:33;;;;;;;2.62;1.16;;;;;;;1.64;100.00;94567.06;1020087;29;20271;-63
2021/12/05 01:17:04;;;;;;;2.12;0.92;;;;;;;1.57;100.00;94561.25;1019149;29;20028;-62
2021/12/05 01:18:23;;;;;;;2.58;0.80;;;;;;;1.64;100.00;94559.31;1018667;29;20023;-63
2021/12/05 01:18:28;;;;;;;2.90;0.93;;;;;;;1.60;100.00;94560.78;1022290;28;20051;-63
2021/12/05 01:18:59;;;;;;;3.17;1.23;;;;;;;1.68;100.00;94571.72;1023724;28;20795;-63
2021/12/05 01:19:31;;;;;;;2.03;0.80;;;;;;;1.70;100.00;94561.94;1021521;28;20175;-65
2021/12/05 01:20:05;;;;;;;3.02;0.90;;;;;;;1.68;100.00;94567.38;1021859;28;20115;-63
2021/12/05 01:20:38;;;;;;;3.88;1.15;;;;;;;1.67;100.00;94568.38;1025965;28;20069;-62
2021/12/05 01:21:12;;;;;;;3.42;0.80;;;;;;;1.69;100.00;94575.91;1026039;28;20266;-63
2021/12/05 01:21:44;;;;;;;2.62;0.72;;;;;;;1.64;100.00;94564.47;1026573;28;20037;-65
2021/12/05 01:22:17;;;;;;;3.44;1.02;;;;;;;1.69;100.00;94571.50;1021607;29;20035;-64
2021/12/05 01:22:58;;;;;;;4.74;0.92;;;;;;;1.69;100.00;94570.72;1024717;28;20023;-64
2021/12/05 01:24:07;;;;;;;3.54;0.88;;;;;;;1.73;100.00;94571.81;1022840;29;20043;-63
2021/12/05 01:25:13;;;;;;;4.07;2.67;;;;;;;1.72;100.00;94576.22;1026099;28;20286;-63
2021/12/05 01:26:00;;;;;;;3.00;1.08;;;;;;;1.72;100.00;94585.78;1026680;28;20756;-63
2021/12/05 01:26:38;;;;;;;3.90;0.90;;;;;;;1.73;100.00;94587.34;1028474;28;20027;-64
2021/12/05 01:27:26;;;;;;;5.56;1.12;;;;;;;1.74;100.00;94581.91;1026714;28;20057;-62
2021/12/05 01:28:20;;;;;;;3.60;1.22;;;;;;;1.75;100.00;94585.31;1027548;28;20019;-62
2021/12/05 01:29:03;;;;;;;3.46;0.80;;;;;;;1.73;100.00;94582.94;1028017;28;20076;-62
2021/12/05 01:29:44;;;;;;;3.30;0.98;;;;;;;1.75;100.00;94582.72;1026202;28;20019;-64
2021/12/05 01:34:00;;;;;;;2.92;0.80;;;;;;;1.72;100.00;94580.59;1026391;28;20023;-62
2021/12/05 01:34:44;;;;;;;2.90;1.06;;;;;;;1.69;100.00;94575.91;1025911;28;20022;-61
2021/12/05 01:36:16;;;;;;;2.96;0.92;;;;;;;1.73;100.00;94587.34;1018563;29;20038;-63
2021/12/05 01:38:13;;;;;;;4.57;0.90;;;;;;;1.70;100.00;94586.00;1027538;28;20042;-63
2021/12/05 01:38:58;;;;;;;2.70;0.84;;;;;;;1.69;100.00;94586.25;1022589;29;20141;-63
2021/12/05 01:39:49;;;;;;;2.66;0.98;;;;;;;1.69;100.00;94594.00;1016402;29;20028;-62
2021/12/05 01:40:38;;;;;;;1.66;0.90;;;;;;;1.67;100.00;94589.06;1020115;29;20031;-64
2021/12/05 01:51:27;;;;;;;3.90;1.78;;;;;;;1.20;100.00;94598.88;1023515;29;20528;-62
2021/12/05 01:53:59;;;;;;;3.82;1.02;;;;;;;1.03;100.00;94591.84;1026389;28;20050;-63
2021/12/05 02:01:18;;;;;;;2.64;1.12;;;;;;;1.02;100.00;94602.44;1033886;28;20104;-63
2021/12/05 02:15:22;;;;;;;6.24;1.94;;;;;;;0.81;100.00;94585.78;1022605;28;20647;-63
2021/12/05 02:16:04;;;;;;;4.82;1.68;;;;;;;0.84;100.00;94585.31;1027006;28;20027;-61
2021/12/05 02:31:37;;;;;;;2.60;1.90;;;;;;;0.75;100.00;94572.00;1027028;28;20162;-63
2021/12/05 02:35:15;;;;;;;5.14;2.18;;;;;;;0.76;100.00;94570.97;1023908;29;20027;-62
2021/12/05 02:35:37;;;;;;;3.66;2.38;;;;;;;0.72;100.00;94561.34;1019600;28;20454;-63
2021/12/05 02:41:23;;;;;;;1.96;1.42;;;;;;;0.75;100.00;94555.72;1023419;29;20023;-64
2021/12/05 02:41:55;;;;;;;5.56;1.64;;;;;;;0.75;100.00;94546.19;1021244;29;20035;-66
2021/12/05 02:42:34;;;;;;;3.66;1.98;;;;;;;0.83;100.00;94563.88;1023385;29;20626;-62
2021/12/05 02:43:14;;;;;;;3.52;1.72;;;;;;;0.84;100.00;94569.81;1022995;28;20166;-60
2021/12/05 02:43:48;;;;;;;4.18;1.70;;;;;;;0.84;100.00;94562.88;1029590;28;20038;-62
2021/12/05 02:44:50;;;;;;;2.94;1.76;;;;;;;0.85;100.00;94566.22;1027076;28;20041;-63
2021/12/05 02:45:21;;;;;;;3.70;2.00;;;;;;;0.73;100.00;94555.94;1031607;28;20456;-62
2021/12/05 02:45:53;;;;;;;4.28;1.83;;;;;;;0.84;100.00;94564.66;1028324;28;20480;-62
2021/12/05 02:46:25;;;;;;;4.92;2.30;;;;;;;0.83;100.00;94570.84;1032245;28;20065;-63
2021/12/05 02:47:04;;;;;;;3.02;1.68;;;;;;;0.83;100.00;94571.59;1027296;28;20449;-62
2021/12/05 02:47:35;;;;;;;2.48;1.70;;;;;;;0.82;100.00;94567.47;1029670;28;20102;-61
2021/12/05 02:48:06;;;;;;;4.15;2.25;;;;;;;0.84;100.00;94572.38;1027660;28;20439;-63
2021/12/05 02:48:38;;;;;;;5.24;2.54;;;;;;;0.82;100.00;94566.69;1024564;28;20027;-62
2021/12/05 02:49:11;;;;;;;3.64;2.38;;;;;;;0.78;100.00;94570.75;1023859;29;20032;-62
2021/12/05 02:49:43;;;;;;;4.38;2.00;;;;;;;0.80;100.00;94568.72;1020297;29;20039;-63
2021/12/05 02:50:14;;;;;;;5.70;2.00;;;;;;;0.74;100.00;94559.28;1027109;28;20527;-62
2021/12/05 02:50:45;;;;;;;2.10;1.88;;;;;;;0.80;100.00;94573.88;1028666;28;20026;-62
2021/12/05 02:51:20;;;;;;;3.65;2.28;;;;;;;0.79;100.00;94577.47;1032205;28;20034;-61
2021/12/05 02:51:55;;;;;;;4.88;2.24;;;;;;;0.79;100.00;94577.47;1029251;28;20121;-62
2021/12/05 02:52:31;;;;;;;3.04;1.76;;;;;;;0.79;100.00;94572.31;1029027;28;20481;-62
2021/12/05 02:53:12;;;;;;;5.64;2.28;;;;;;;0.77;100.00;94569.16;1023533;28;20074;-62
2021/12/05 02:53:49;;;;;;;3.92;1.80;;;;;;;0.77;100.00;94572.56;1022515;28;20673;-63
2021/12/05 02:54:21;;;;;;;2.74;1.82;;;;;;;0.79;100.00;94572.31;1019621;29;20464;-62
2021/12/05 02:54:54;;;;;;;2.52;2.06;;;;;;;0.76;100.00;94577.94;1024328;28;20027;-63
2021/12/05 02:55:37;;;;;;;2.90;2.22;;;;;;;0.76;100.00;94565.81;1030127;28;20034;-62
2021/12/05 02:56:08;;;;;;;3.18;2.10;;;;;;;0.76;100.00;94575.34;1030860;28;20085;-61
2021/12/05 02:56:45;;;;;;;3.24;2.02;;;;;;;0.75;100.00;94571.22;1031487;28;20023;-62
2021/12/05 02:57:18;;;;;;;3.46;1.66;;;;;;;0.69;100.00;94567.75;1019625;29;20835;-62
2021/12/05 02:57:55;;;;;;;5.38;2.28;;;;;;;0.73;100.00;94573.22;1020948;29;20027;-62
2021/12/05 02:59:06;;;;;;;6.86;2.24;;;;;;;0.74;100.00;94574.78;1022505;28;20046;-62
2021/12/05 03:00:16;;;;;;;5.78;2.00;;;;;;;0.73;100.00;94578.38;1028073;28;20892;-62
2021/12/05 03:01:43;;;;;;;4.36;2.06;;;;;;;0.70;100.00;94574.47;1026940;28;20736;-62
2021/12/05 03:02:16;;;;;;;2.60;1.80;;;;;;;0.70;100.00;94575.28;1027224;28;20405;-62
2021/12/05 03:02:48;;;;;;;2.52;1.88;;;;;;;0.69;100.00;94578.06;1027092;28;20027;-63
2021/12/05 03:03:24;;;;;;;6.66;1.84;;;;;;;0.65;100.00;94582.91;1030686;28;20034;-62
2021/12/05 03:03:55;;;;;;;6.40;2.56;;;;;;;0.65;100.00;94577.75;1018693;29;20027;-62
2021/12/05 03:04:31;;;;;;;6.28;2.33;;;;;;;0.66;100.00;94581.88;1016204;29;20055;-62
2021/12/05 03:05:04;;;;;;;3.14;1.98;;;;;;;0.66;100.00;94584.47;1018584;29;20034;-62
2021/12/05 03:05:42;;;;;;;4.36;1.94;;;;;;;0.65;100.00;94588.06;1022017;28;20042;-62
2021/12/05 03:06:19;;;;;;;4.24;2.24;;;;;;;0.64;100.00;94586.50;1029246;28;20034;-62
2021/12/05 03:06:51;;;;;;;5.00;2.08;;;;;;;0.56;100.00;94575.75;1029518;28;20027;-63
2021/12/05 03:07:37;;;;;;;4.70;2.36;;;;;;;0.61;100.00;94586.19;1026583;28;20026;-62
2021/12/05 03:08:07;;;;;;;2.98;2.00;;;;;;;0.64;100.00;94590.88;1027141;28;20039;-60
2021/12/05 03:08:38;;;;;;;5.20;2.40;;;;;;;0.62;100.00;94591.09;1029660;28;20034;-62
2021/12/05 03:09:12;;;;;;;2.83;1.80;;;;;;;0.62;100.00;94591.09;1027118;28;20035;-62
2021/12/05 03:09:43;;;;;;;3.80;1.90;;;;;;;0.63;100.00;94590.06;1026952;28;20035;-63
2021/12/05 03:10:16;;;;;;;2.65;1.70;;;;;;;0.62;100.00;94588.53;1027059;28;20133;-63
2021/12/05 03:10:47;;;;;;;1.78;1.56;;;;;;;0.62;100.00;94593.69;1024596;28;20034;-63
2021/12/05 03:11:18;;;;;;;5.78;1.98;;;;;;;0.61;100.00;94594.69;1030964;28;20141;-62
2021/12/05 03:11:49;;;;;;;2.92;1.90;;;;;;;0.59;100.00;94596.72;1025541;28;20042;-63
2021/12/05 03:12:20;;;;;;;4.40;1.72;;;;;;;0.58;100.00;94592.56;1026934;28;20030;-62
2021/12/05 03:12:50;;;;;;;5.45;1.83;;;;;;;0.59;100.00;94591.56;1030949;28;20026;-63
2021/12/05 03:13:22;;;;;;;5.60;2.00;;;;;;;0.57;100.00;94595.38;1027099;28;20039;-62
2021/12/05 03:13:52;;;;;;;6.28;2.10;;;;;;;0.54;100.00;94591.47;1026619;28;20027;-62
2021/12/05 03:14:23;;;;;;;3.47;1.77;;;;;;;0.56;100.00;94594.59;1018986;29;20023;-62
2021/12/05 03:15:00;;;;;;;2.67;1.40;;;;;;;0.51;100.00;94581.59;1014658;29;20391;-62
2021/12/05 03:15:33;;;;;;;5.16;1.90;;;;;;;0.48;100.00;94589.78;1022778;29;20513;-63
2021/12/05 03:16:04;;;;;;;3.92;1.30;;;;;;;0.51;100.00;94591.91;1018973;29;20041;-62
2021/12/05 03:16:35;;;;;;;3.17;1.42;;;;;;;0.55;100.00;94598.19;1015276;29;20047;-63
2021/12/05 03:17:06;;;;;;;6.54;1.68;;;;;;;0.55;100.00;94595.59;1025321;28;20142;-63
2021/12/05 03:17:36;;;;;;;4.80;1.13;;;;;;;0.59;100.00;94598.53;1027256;28;20102;-63
2021/12/05 03:18:06;;;;;;;6.30;1.60;;;;;;;0.56;100.00;94594.59;1018678;29;20039;-63
2021/12/05 03:18:37;;;;;;;4.13;1.48;;;;;;;0.50;100.00;94589.56;1016217;29;20023;-63
2021/12/05 03:19:08;;;;;;;4.00;1.25;;;;;;;0.50;100.00;94592.13;1018955;29;20051;-62
2021/12/05 03:19:38;;;;;;;4.85;1.35;;;;;;;0.54;100.00;94599.22;1022918;29;20543;-60
2021/12/05 03:20:10;;;;;;;4.70;1.40;;;;;;;0.52;100.00;94598.66;1022892;29;20031;-63
2021/12/05 03:20:40;;;;;;;4.02;1.42;;;;;;;0.49;100.00;94593.94;1026980;28;20031;-62
2021/12/05 03:21:11;;;;;;;5.28;1.50;;;;;;;0.58;100.00;94602.91;1018984;29;20115;-63
2021/12/05 03:21:41;;;;;;;5.30;2.00;;;;;;;0.50;100.00;94594.72;1019083;29;20488;-63
2021/12/05 03:22:12;;;;;;;2.28;1.30;;;;;;;0.56;100.00;94594.59;1016055;29;20031;-62
2021/12/05 03:22:42;;;;;;;2.30;1.00;;;;;;;0.56;100.00;94601.56;1019195;29;20046;-63
2021/12/05 03:23:13;;;;;;;4.97;1.27;;;;;;;0.55;100.00;94603.34;1023199;28;20039;-63
2021/12/05 03:23:44;;;;;;;2.22;1.13;;;;;;;0.54;100.00;94606.94;1021394;29;20038;-62
2021/12/05 03:24:16;;;;;;;3.88;1.88;;;;;;;0.55;100.00;94603.34;1022548;29;20109;-63
2021/12/05 03:24:48;;;;;;;3.74;0.94;;;;;;;0.53;100.00;94600.19;1023748;28;20616;-63
2021/12/05 03:25:19;;;;;;;3.62;1.16;;;;;;;0.52;100.00;94601.22;1034675;28;20088;-63
2021/12/05 03:25:50;;;;;;;3.98;1.42;;;;;;;0.44;100.00;94597.22;1029760;28;20054;-62
2021/12/05 03:26:22;;;;;;;5.25;1.40;;;;;;;0.49;100.00;94612.00;1022880;29;20031;-62
2021/12/05 03:26:53;;;;;;;3.36;1.30;;;;;;;0.40;100.00;94601.25;1023084;29;20023;-63
2021/12/05 03:27:23;;;;;;;2.10;1.10;;;;;;;0.46;100.00;94620.19;1018903;29;20576;-63
2021/12/05 03:27:54;;;;;;;6.50;1.67;;;;;;;0.46;100.00;94612.44;1019463;29;20453;-62
2021/12/05 03:28:24;;;;;;;3.80;1.00;;;;;;;0.44;100.00;94602.38;1022970;29;20047;-62
2021/12/05 03:28:56;;;;;;;3.35;1.02;;;;;;;0.48;100.00;94613.03;1020577;28;20035;-63
2021/12/05 03:29:26;;;;;;;3.10;1.32;;;;;;;0.49;100.00;94622.31;1023216;28;20019;-62
2021/12/05 03:29:57;;;;;;;3.03;1.25;;;;;;;0.48;100.00;94618.19;1023121;29;20062;-62
2021/12/05 03:30:27;;;;;;;2.50;1.08;;;;;;;0.49;100.00;94619.75;1022059;29;20027;-62
2021/12/05 03:30:58;;;;;;;4.13;0.98;;;;;;;0.48;100.00;94620.75;1019102;29;20520;-63
2021/12/05 03:31:30;;;;;;;2.67;1.40;;;;;;;0.42;100.00;94613.91;1019312;29;20032;-63
2021/12/05 03:32:00;;;;;;;3.32;1.10;;;;;;;0.46;100.00;94623.56;1023347;28;20059;-62
2021/12/05 03:32:31;;;;;;;5.47;1.20;;;;;;;0.39;100.00;94607.41;1018768;29;20031;-63
2021/12/05 03:33:01;;;;;;;3.00;0.90;;;;;;;0.45;100.00;94618.63;1019119;29;20751;-62
2021/12/05 03:33:32;;;;;;;5.53;1.30;;;;;;;0.43;100.00;94618.84;1019018;29;20040;-63
2021/12/05 03:34:03;;;;;;;5.03;1.25;;;;;;;0.46;100.00;94615.03;1019174;29;20259;-63
2021/12/05 03:34:33;;;;;;;2.70;0.90;;;;;;;0.47;100.00;94617.41;1018411;29;20042;-64
2021/12/05 03:35:05;;;;;;;3.30;0.93;;;;;;;0.46;100.00;94615.81;1018944;28;20608;-63
2021/12/05 03:35:35;;;;;;;5.74;1.92;;;;;;;0.44;100.00;94622.22;1023201;29;20031;-64
2021/12/05 03:36:06;;;;;;;3.58;1.20;;;;;;;0.43;100.00;94616.25;1018976;29;20099;-63
2021/12/05 03:36:38;;;;;;;2.10;0.80;;;;;;;0.44;100.00;94624.81;1017886;29;20039;-63
2021/12/05 03:37:10;;;;;;;4.06;1.30;;;;;;;0.45;100.00;94618.63;1022991;29;20604;-63
2021/12/05 03:37:40;;;;;;;6.46;1.00;;;;;;;0.47;100.00;94626.94;1018843;29;20435;-62
2021/12/05 03:38:10;;;;;;;3.20;0.88;;;;;;;0.48;100.00;94623.34;1018892;29;20028;-62
2021/12/05 03:38:41;;;;;;;1.67;0.85;;;;;;;0.48;100.00;94618.19;1015180;29;20382;-62
2021/12/05 03:39:12;;;;;;;5.72;1.13;;;;;;;0.45;100.00;94613.47;1015034;29;20573;-63
2021/12/05 03:39:42;;;;;;;5.45;0.88;;;;;;;0.48;100.00;94631.09;1019072;29;20701;-62
2021/12/05 03:40:13;;;;;;;3.20;1.00;;;;;;;0.47;100.00;94626.94;1023132;28;20038;-63
2021/12/05 03:40:44;;;;;;;3.22;1.75;;;;;;;0.47;100.00;94624.38;1023017;28;20086;-63
2021/12/05 03:41:15;;;;;;;3.78;0.90;;;;;;;0.48;100.00;94628.50;1023226;28;20024;-62
2021/12/05 03:41:45;;;;;;;3.83;1.05;;;;;;;0.46;100.00;94630.50;1026424;28;20492;-63
2021/12/05 03:42:16;;;;;;;1.42;0.90;;;;;;;0.32;100.00;94608.56;1023357;28;20567;-63
2021/12/05 03:42:46;;;;;;;6.55;0.90;;;;;;;0.46;100.00;94635.66;1027037;28;20031;-63
2021/12/05 03:43:19;;;;;;;2.60;0.88;;;;;;;0.47;100.00;94626.94;1024709;28;20050;-63
2021/12/05 03:43:52;;;;;;;3.52;0.86;;;;;;;0.48;100.00;94633.66;1025969;28;20027;-62
2021/12/05 03:44:25;;;;;;;4.94;1.06;;;;;;;0.40;100.00;94626.25;1026876;28;20035;-63
2021/12/05 03:44:55;;;;;;;2.60;0.80;;;;;;;0.46;100.00;94640.84;1018534;29;20035;-63
2021/12/05 03:45:28;;;;;;;5.30;1.67;;;;;;;0.39;100.00;94622.88;1018849;29;20540;-64
2021/12/05 03:45:58;;;;;;;5.92;1.32;;;;;;;0.44;100.00;94633.34;1018886;29;20036;-63
2021/12/05 03:46:29;;;;;;;3.95;1.25;;;;;;;0.45;100.00;94634.13;1019921;28;20639;-60
2021/12/05 03:46:59;;;;;;;1.77;0.85;;;;;;;0.46;100.00;94633.09;1027219;28;20027;-63
2021/12/05 03:47:30;;;;;;;5.45;1.77;;;;;;;0.44;100.00;94633.34;1022850;28;20030;-63
2021/12/05 03:48:02;;;;;;;3.90;1.52;;;;;;;0.47;100.00;94632.09;1023202;29;20046;-63
2021/12/05 03:48:37;;;;;;;2.08;1.24;;;;;;;0.46;100.00;94631.28;1015873;29;20020;-61
2021/12/05 03:49:09;;;;;;;1.08;0.80;;;;;;;0.47;100.00;94632.09;1019793;29;20391;-63
2021/12/05 03:49:39;;;;;;;3.42;1.22;;;;;;;0.47;100.00;94632.88;1024077;28;20521;-62
2021/12/05 03:50:10;;;;;;;4.57;1.25;;;;;;;0.47;100.00;94626.94;1026582;28;20030;-64
2021/12/05 03:50:41;;;;;;;4.60;1.00;;;;;;;0.47;100.00;94632.09;1027212;28;20405;-61
2021/12/05 03:51:14;;;;;;;4.18;0.93;;;;;;;0.47;100.00;94632.09;1026902;28;20038;-63
2021/12/05 03:51:48;;;;;;;3.28;1.48;;;;;;;0.44;100.00;94628.16;1027471;28;20102;-60
2021/12/05 03:52:19;;;;;;;3.64;1.00;;;;;;;0.44;100.00;94632.56;1022921;29;20031;-63
2021/12/05 03:52:49;;;;;;;4.47;1.75;;;;;;;0.43;100.00;94630.97;1022929;29;20089;-60
2021/12/05 03:53:20;;;;;;;6.55;1.10;;;;;;;0.43;100.00;94634.31;1018682;28;20047;-62
2021/12/05 03:53:51;;;;;;;5.43;1.30;;;;;;;0.39;100.00;94627.28;1023337;28;20478;-63
2021/12/05 03:54:21;;;;;;;6.72;1.02;;;;;;;0.45;100.00;94636.69;1026887;28;20046;-62
2021/12/05 03:54:52;;;;;;;3.90;1.00;;;;;;;0.45;100.00;94628.94;1026607;28;20701;-61
2021/12/05 03:55:23;;;;;;;3.60;1.17;;;;;;;0.45;100.00;94634.13;1026110;28;20026;-62
2021/12/05 03:55:54;;;;;;;5.25;1.10;;;;;;;0.44;100.00;94629.97;1021695;28;20107;-63
2021/12/05 03:56:24;;;;;;;4.36;1.00;;;;;;;0.43;100.00;94634.31;1023033;29;20424;-63
2021/12/05 03:56:55;;;;;;;4.80;1.60;;;;;;;0.42;100.00;94632.75;1022907;28;20030;-63
2021/12/05 03:57:25;;;;;;;2.80;0.90;;;;;;;0.42;100.00;94634.56;1023059;29;20031;-63
2021/12/05 03:57:56;;;;;;;6.85;1.67;;;;;;;0.42;100.00;94631.97;1023089;28;20521;-63
2021/12/05 03:58:28;;;;;;;2.58;0.90;;;;;;;0.43;100.00;94625.81;1030174;28;20042;-62
2021/12/05 03:58:59;;;;;;;3.22;1.20;;;;;;;0.43;100.00;94629.16;1027169;28;20047;-62
2021/12/05 03:59:29;;;;;;;2.78;1.30;;;;;;;0.42;100.00;94630.19;1023705;28;20912;-63
2021/12/05 04:00:00;;;;;;;3.83;1.77;;;;;;;0.42;100.00;94625.03;1027130;28;20031;-63
2021/12/05 04:00:32;;;;;;;4.75;1.00;;;;;;;0.43;100.00;94620.63;1023878;28;20027;-62
2021/12/05 04:01:07;;;;;;;7.14;1.38;;;;;;;0.35;100.00;94611.47;1022960;29;20027;-62
2021/12/05 04:01:38;;;;;;;2.32;1.12;;;;;;;0.36;100.00;94615.59;1023027;29;20110;-63
2021/12/05 04:02:09;;;;;;;3.44;1.30;;;;;;;0.40;100.00;94616.75;1022751;29;20532;-62
2021/12/05 04:02:39;;;;;;;7.47;1.40;;;;;;;0.41;100.00;94622.69;1018580;29;20068;-62
2021/12/05 04:03:11;;;;;;;2.17;1.25;;;;;;;0.33;100.00;94604.94;1015147;29;20031;-63
2021/12/05 04:03:42;;;;;;;3.96;1.04;;;;;;;0.39;100.00;94616.94;1022794;29;20027;-63
2021/12/05 04:04:17;;;;;;;5.58;2.40;;;;;;;0.39;100.00;94616.94;1018801;29;20028;-63
2021/12/05 04:04:49;;;;;;;4.70;1.28;;;;;;;0.37;100.00;94622.34;1026301;28;20031;-62
2021/12/05 04:05:20;;;;;;;4.16;1.20;;;;;;;0.37;100.00;94612.03;1022911;29;20023;-63
2021/12/05 04:05:50;;;;;;;2.75;1.00;;;;;;;0.37;100.00;94622.34;1023759;28;20035;-62
2021/12/05 04:06:21;;;;;;;3.38;1.20;;;;;;;0.30;100.00;94616.50;1027114;28;20027;-64
2021/12/05 04:06:52;;;;;;;4.30;1.23;;;;;;;0.37;100.00;94619.78;1031501;28;20030;-63
2021/12/05 04:07:23;;;;;;;2.33;1.08;;;;;;;0.37;100.00;94621.53;1033194;28;20454;-62
2021/12/05 04:07:53;;;;;;;4.53;1.40;;;;;;;0.32;100.00;94611.91;1030771;28;20026;-62
2021/12/05 04:08:25;;;;;;;4.60;1.40;;;;;;;0.40;100.00;94627.06;1023093;29;20650;-62
2021/12/05 04:08:57;;;;;;;1.58;1.14;;;;;;;0.33;100.00;94615.28;1022718;29;20074;-63
2021/12/05 04:09:27;;;;;;;3.80;1.14;;;;;;;0.41;100.00;94627.84;1022514;29;20027;-63
2021/12/05 04:09:58;;;;;;;6.95;1.83;;;;;;;0.39;100.00;94625.47;1023676;28;20865;-63
2021/12/05 04:10:28;;;;;;;13.80;2.00;;;;;;;0.38;100.00;94626.50;1022821;29;20046;-63
2021/12/05 04:11:03;;;;;;;3.15;1.15;;;;;;;0.40;100.00;94626.25;1024969;28;20038;-61
2021/12/05 04:11:38;;;;;;;2.42;1.22;;;;;;;0.38;100.00;94629.06;1022844;29;20023;-62
2021/12/05 04:12:09;;;;;;;2.82;1.20;;;;;;;0.40;100.00;94623.66;1013950;29;20029;-63
2021/12/05 04:12:40;;;;;;;6.06;1.42;;;;;;;0.40;100.00;94621.91;1020465;29;20051;-62
2021/12/05 04:13:10;;;;;;;7.38;1.42;;;;;;;0.39;100.00;94624.69;1017104;29;20039;-63
2021/12/05 04:13:41;;;;;;;4.72;1.35;;;;;;;0.40;100.00;94621.09;1022653;28;20058;-63
2021/12/05 04:14:15;;;;;;;3.08;1.60;;;;;;;0.39;100.00;94619.53;1026754;28;20085;-60
2021/12/05 04:14:46;;;;;;;4.06;1.60;;;;;;;0.34;100.00;94615.06;1026845;28;20031;-62
2021/12/05 04:15:17;;;;;;;4.55;1.50;;;;;;;0.40;100.00;94624.47;1023045;29;20031;-62
2021/12/05 04:15:48;;;;;;;4.93;1.90;;;;;;;0.41;100.00;94623.47;1022159;29;20024;-63
2021/12/05 04:16:18;;;;;;;5.82;1.86;;;;;;;0.43;100.00;94620.63;1022686;29;20023;-63
2021/12/05 04:16:49;;;;;;;2.22;1.40;;;;;;;0.41;100.00;94612.34;1023039;28;20489;-62
2021/12/05 04:17:20;;;;;;;1.65;1.10;;;;;;;0.44;100.00;94622.22;1024102;28;20417;-63
2021/12/05 04:17:50;;;;;;;3.97;1.55;;;;;;;0.42;100.00;94609.53;1027346;28;20042;-62
2021/12/05 04:18:20;;;;;;;3.30;1.40;;;;;;;0.43;100.00;94618.06;1026625;28;20294;-63
2021/12/05 04:18:51;;;;;;;3.78;1.60;;;;;;;0.38;100.00;94607.66;1026740;28;20058;-62
2021/12/05 04:19:22;;;;;;;5.75;1.90;;;;;;;0.38;100.00;94611.00;1019095;29;20886;-62
2021/12/05 04:19:52;;;;;;;2.38;1.30;;;;;;;0.39;100.00;94614.38;1018963;29;20023;-63
2021/12/05 04:20:24;;;;;;;4.30;1.40;;;;;;;0.39;100.00;94609.22;1014742;29;20024;-63
2021/12/05 04:20:54;;;;;;;3.84;1.64;;;;;;;0.38;100.00;94608.44;1019365;29;20024;-63
2021/12/05 04:21:25;;;;;;;2.53;1.42;;;;;;;0.36;100.00;94610.44;1022860;29;20047;-63
2021/12/05 04:21:56;;;;;;;3.95;1.55;;;;;;;0.30;100.00;94600.25;1019309;29;20569;-62
2021/12/05 04:22:26;;;;;;;3.52;1.70;;;;;;;0.34;100.00;94606.53;1026418;28;20157;-62
2021/12/05 04:22:57;;;;;;;2.95;1.65;;;;;;;0.38;100.00;94611.00;1018793;29;20039;-63
2021/12/05 04:23:27;;;;;;;6.68;2.33;;;;;;;0.40;100.00;94605.59;1019415;29;20020;-62
2021/12/05 04:23:58;;;;;;;5.47;1.80;;;;;;;0.37;100.00;94611.22;1016923;29;20028;-63
2021/12/05 04:24:29;;;;;;;4.00;1.85;;;;;;;0.38;100.00;94607.66;1019144;28;20016;-63
2021/12/05 04:25:03;;;;;;;3.10;1.60;;;;;;;0.38;100.00;94612.81;1026688;28;20500;-63
2021/12/05 04:25:36;;;;;;;2.54;1.90;;;;;;;0.37;100.00;94611.22;1027464;28;20071;-62
2021/12/05 04:26:07;;;;;;;2.66;1.70;;;;;;;0.38;100.00;94612.81;1031093;28;20026;-63
2021/12/05 04:26:37;;;;;;;3.13;1.67;;;;;;;0.39;100.00;94610.00;1022418;29;20142;-63
2021/12/05 04:27:08;;;;;;;2.97;1.90;;;;;;;0.39;100.00;94611.78;1023503;28;20679;-62
2021/12/05 04:27:40;;;;;;;3.13;1.67;;;;;;;0.41;100.00;94607.19;1026135;28;20083;-62
2021/12/05 04:28:10;;;;;;;7.06;2.12;;;;;;;0.39;100.00;94609.22;1027163;28;20061;-62
2021/12/05 04:28:41;;;;;;;5.95;2.20;;;;;;;0.40;100.00;94606.41;1030750;28;20615;-59
2021/12/05 04:29:11;;;;;;;4.00;1.88;;;;;;;0.38;100.00;94605.06;1028432;28;20780;-63
2021/12/05 04:29:41;;;;;;;5.10;2.47;;;;;;;0.40;100.00;94608.19;1027544;28;20065;-63
2021/12/05 04:30:13;;;;;;;2.85;2.00;;;;;;;0.35;100.00;94606.31;1023349;29;20022;-63
2021/12/05 04:30:43;;;;;;;4.56;2.28;;;;;;;0.39;100.00;94609.22;1022565;29;20109;-63
2021/12/05 04:31:15;;;;;;;4.80;2.17;;;;;;;0.38;100.00;94605.84;1026534;28;20114;-62
2021/12/05 04:31:45;;;;;;;2.34;1.90;;;;;;;0.39;100.00;94604.81;1023054;29;20515;-63
2021/12/05 04:32:16;;;;;;;3.42;2.00;;;;;;;0.39;100.00;94609.22;1024189;28;20066;-63
2021/12/05 04:32:46;;;;;;;4.70;2.20;;;;;;;0.37;100.00;94603.47;1026575;28;20464;-63
2021/12/05 04:33:17;;;;;;;3.72;2.20;;;;;;;0.36;100.00;94610.44;1026527;28;20101;-63
2021/12/05 04:33:48;;;;;;;7.03;2.70;;;;;;;0.36;100.00;94610.44;1026754;28;20143;-62
2021/12/05 04:34:19;;;;;;;3.96;2.06;;;;;;;0.39;100.00;94604.06;1027265;28;20030;-63
2021/12/05 04:34:50;;;;;;;4.75;2.10;;;;;;;0.41;100.00;94604.63;1029827;28;20086;-63
2021/12/05 04:35:20;;;;;;;3.22;1.92;;;;;;;0.41;100.00;94604.63;1026485;28;20027;-63
2021/12/05 04:35:50;;;;;;;4.90;2.17;;;;;;;0.35;100.00;94598.56;1027125;28;20022;-63
2021/12/05 04:36:21;;;;;;;2.60;1.80;;;;;;;0.40;100.00;94605.59;1026596;28;20026;-63
2021/12/05 04:36:56;;;;;;;3.30;1.90;;;;;;;0.41;100.00;94607.19;1027037;28;20018;-63
2021/12/05 04:37:26;;;;;;;4.08;2.06;;;;;;;0.41;100.00;94607.19;1030554;28;20022;-63
2021/12/05 04:37:57;;;;;;;6.75;1.90;;;;;;;0.40;100.00;94601.25;1031523;28;20023;-63
2021/12/05 04:38:27;;;;;;;4.57;1.55;;;;;;;0.42;100.00;94603.59;1034893;28;20073;-63
2021/12/05 04:39:01;;;;;;;3.40;1.74;;;;;;;0.39;100.00;94594.50;1034918;28;20030;-63
2021/12/05 04:39:31;;;;;;;3.33;1.80;;;;;;;0.40;100.00;94597.88;1030499;28;20032;-62
2021/12/05 04:40:03;;;;;;;4.95;1.98;;;;;;;0.43;100.00;94605.16;1027906;28;20023;-63
2021/12/05 04:40:34;;;;;;;2.30;1.76;;;;;;;0.42;100.00;94608.75;1022673;29;20121;-63
2021/12/05 04:41:05;;;;;;;4.38;2.00;;;;;;;0.42;100.00;94604.38;1019282;29;20106;-63